^^
Station Historical Data
Daily Summary for January 30, 2021 Units:  English    Metric   Both
Daily Weekly Monthly Yearly
  High: Low: Average:
Temperature: 26.7 °F 8.4 °F 18 °F
Dew Point: 19.5 °F 5.1 °F 12.7 °F
Humidity: 87% 67% 80%
Wind Speed: 4mph 0mph 1.3mph
Wind Gust: 8mph - -
Wind- - ESE
Pressure: 30.39 in 30.22 in -
Precipitation: 0.00 in    
 
 
Tabular Data for January 30, 2021
Time Temperature Dew Point Pressure Wind Wind Speed Wind Gust Humidity Rainfall Rate (Hourly) solar
00:00 13.7 °F 10.3 °F 30.39 in Calm     86% 0.00 in 0 W/m2
00:05 13.4 °F 10 °F 30.39 in Calm   2 mph 86% 0.00 in 0 W/m2
00:10 13.4 °F 10.3 °F 30.39 in SSW 1 mph 1 mph 87% 0.00 in 0 W/m2
00:15 13.6 °F 10.5 °F 30.39 in Calm   1 mph 87% 0.00 in 0 W/m2
00:20 13.5 °F 10.4 °F 30.39 in Calm     87% 0.00 in 0 W/m2
00:25 13.2 °F 9.8 °F 30.39 in Calm   1 mph 86% 0.00 in 0 W/m2
00:30 13.1 °F 9.7 °F 30.39 in SSW 1 mph 1 mph 86% 0.00 in 0 W/m2
00:35 13.1 °F 9.7 °F 30.39 in SSW 1 mph 3 mph 86% 0.00 in 0 W/m2
00:40 13.3 °F 10.2 °F 30.39 in SSW 2 mph 2 mph 87% 0.00 in 0 W/m2
00:45 13.4 °F 10 °F 30.39 in SSW 1 mph 2 mph 86% 0.00 in 0 W/m2
00:50 13.4 °F 10 °F 30.39 in SSW 1 mph 1 mph 86% 0.00 in 0 W/m2
00:55 13.3 °F 9.9 °F 30.39 in Calm   1 mph 86% 0.00 in 0 W/m2
01:00 13.1 °F 9.7 °F 30.38 in Calm     86% 0.00 in 0 W/m2
01:05 13 °F 9.6 °F 30.38 in Calm     86% 0.00 in 0 W/m2
01:10 12.9 °F 9.5 °F 30.38 in Calm   1 mph 86% 0.00 in 0 W/m2
01:15 12.8 °F 9.4 °F 30.38 in SSW 1 mph 1 mph 86% 0.00 in 0 W/m2
01:20 12.8 °F 9.4 °F 30.37 in SSW 1 mph 1 mph 86% 0.00 in 0 W/m2
01:25 12.8 °F 9.4 °F 30.37 in Calm   1 mph 86% 0.00 in 0 W/m2
01:30 12.7 °F 9.3 °F 30.37 in Calm     86% 0.00 in 0 W/m2
01:35 12.8 °F 9.4 °F 30.37 in Calm     86% 0.00 in 0 W/m2
01:40 12.7 °F 9.3 °F 30.37 in Calm   1 mph 86% 0.00 in 0 W/m2
01:45 12.6 °F 9.2 °F 30.37 in Calm   1 mph 86% 0.00 in 0 W/m2
01:50 12.5 °F 9.1 °F 30.37 in Calm     86% 0.00 in 0 W/m2
01:55 12.3 °F 8.9 °F 30.37 in Calm     86% 0.00 in 0 W/m2
02:00 12.1 °F 8.7 °F 30.37 in Calm     86% 0.00 in 0 W/m2
02:05 12.1 °F 8.7 °F 30.37 in Calm     86% 0.00 in 0 W/m2
02:10 12 °F 8.6 °F 30.37 in Calm     86% 0.00 in 0 W/m2
02:15 11.9 °F 8.5 °F 30.37 in Calm     86% 0.00 in 0 W/m2
02:20 11.9 °F 8.5 °F 30.37 in Calm     86% 0.00 in 0 W/m2
02:25 11.9 °F 8.5 °F 30.38 in Calm     86% 0.00 in 0 W/m2
02:30 11.8 °F 8.4 °F 30.37 in Calm     86% 0.00 in 0 W/m2
02:35 11.6 °F 8.2 °F 30.37 in Calm   1 mph 86% 0.00 in 0 W/m2
02:40 11.7 °F 8.3 °F 30.37 in Calm     86% 0.00 in 0 W/m2
02:45 11.4 °F 8 °F 30.37 in Calm     86% 0.00 in 0 W/m2
02:50 11.3 °F 7.9 °F 30.38 in Calm     86% 0.00 in 0 W/m2
02:55 11.3 °F 7.7 °F 30.38 in Calm     85% 0.00 in 0 W/m2
03:00 11 °F 7.4 °F 30.38 in Calm     85% 0.00 in 0 W/m2
03:05 11 °F 7.4 °F 30.38 in Calm     85% 0.00 in 0 W/m2
03:10 10.9 °F 7.5 °F 30.38 in Calm     86% 0.00 in 0 W/m2
03:15 10.8 °F 7.2 °F 30.37 in Calm     85% 0.00 in 0 W/m2
03:20 10.7 °F 7.1 °F 30.37 in Calm     85% 0.00 in 0 W/m2
03:25 10.6 °F 7 °F 30.37 in Calm     85% 0.00 in 0 W/m2
03:30 10.3 °F 6.7 °F 30.37 in Calm     85% 0.00 in 0 W/m2
03:35 10.2 °F 6.6 °F 30.37 in Calm     85% 0.00 in 0 W/m2
03:40 10.1 °F 6.5 °F 30.37 in Calm     85% 0.00 in 0 W/m2
03:45 10.1 °F 6.7 °F 30.37 in Calm   1 mph 86% 0.00 in 0 W/m2
03:50 10.1 °F 6.7 °F 30.37 in Calm     86% 0.00 in 0 W/m2
03:55 10.1 °F 6.7 °F 30.37 in Calm     86% 0.00 in 0 W/m2
04:00 10.2 °F 6.8 °F 30.37 in Calm     86% 0.00 in 0 W/m2
04:05 10.2 °F 6.8 °F 30.37 in Calm   1 mph 86% 0.00 in 0 W/m2
04:10 10.2 °F 6.8 °F 30.37 in SSW 1 mph 1 mph 86% 0.00 in 0 W/m2
04:15 10.2 °F 6.8 °F 30.37 in Calm   1 mph 86% 0.00 in 0 W/m2
04:20 10.1 °F 6.7 °F 30.37 in Calm   1 mph 86% 0.00 in 0 W/m2
04:25 10.1 °F 6.7 °F 30.37 in Calm   1 mph 86% 0.00 in 0 W/m2
04:30 10.2 °F 6.8 °F 30.37 in Calm     86% 0.00 in 0 W/m2
04:35 10.1 °F 6.7 °F 30.37 in Calm     86% 0.00 in 0 W/m2
04:40 10.1 °F 6.7 °F 30.37 in Calm     86% 0.00 in 0 W/m2
04:45 10.1 °F 6.7 °F 30.37 in Calm     86% 0.00 in 0 W/m2
04:50 10.1 °F 6.7 °F 30.37 in Calm     86% 0.00 in 0 W/m2
04:55 10.1 °F 6.7 °F 30.37 in Calm     86% 0.00 in 0 W/m2
05:00 10.1 °F 6.7 °F 30.37 in Calm     86% 0.00 in 0 W/m2
05:05 10.2 °F 6.8 °F 30.37 in Calm     86% 0.00 in 0 W/m2
05:10 10.1 °F 6.7 °F 30.37 in Calm     86% 0.00 in 0 W/m2
05:15 9.9 °F 6.6 °F 30.37 in Calm     86% 0.00 in 0 W/m2
05:20 9.7 °F 6.4 °F 30.37 in Calm   1 mph 86% 0.00 in 0 W/m2
05:25 9.6 °F 6.3 °F 30.37 in Calm   1 mph 86% 0.00 in 0 W/m2
05:30 9.4 °F 6.1 °F 30.37 in Calm     86% 0.00 in 0 W/m2
05:35 9.4 °F 6.1 °F 30.38 in Calm     86% 0.00 in 0 W/m2
05:40 9.3 °F 6 °F 30.38 in Calm   1 mph 86% 0.00 in 0 W/m2
05:45 9.4 °F 6.1 °F 30.37 in SW 1 mph 1 mph 86% 0.00 in 0 W/m2
05:50 9.4 °F 6.1 °F 30.37 in SW 1 mph 1 mph 86% 0.00 in 0 W/m2
05:55 9.4 °F 6.1 °F 30.38 in SW 1 mph 1 mph 86% 0.00 in 0 W/m2
06:00 9.4 °F 6.1 °F 30.37 in SW 1 mph 1 mph 86% 0.00 in 0 W/m2
06:05 9.5 °F 6.4 °F 30.38 in Calm   1 mph 87% 0.00 in 0 W/m2
06:10 9.6 °F 6.5 °F 30.38 in Calm     87% 0.00 in 0 W/m2
06:15 9.7 °F 6.6 °F 30.38 in Calm     87% 0.00 in 0 W/m2
06:20 9.7 °F 6.6 °F 30.38 in Calm     87% 0.00 in 0 W/m2
06:25 9.8 °F 6.7 °F 30.37 in Calm     87% 0.00 in 0 W/m2
06:30 9.8 °F 6.7 °F 30.37 in Calm     87% 0.00 in 0 W/m2
06:35 9.8 °F 6.7 °F 30.37 in Calm     87% 0.00 in 0 W/m2
06:40 9.8 °F 6.7 °F 30.37 in Calm     87% 0.00 in 0 W/m2
06:45 9.8 °F 6.7 °F 30.37 in Calm     87% 0.00 in 0 W/m2
06:50 9.6 °F 6.3 °F 30.37 in Calm     86% 0.00 in 0 W/m2
06:55 9.6 °F 6.3 °F 30.37 in Calm     86% 0.00 in 0 W/m2
07:00 9.5 °F 6.2 °F 30.37 in Calm     86% 0.00 in 0 W/m2
07:05 9.5 °F 6.4 °F 30.37 in Calm     87% 0.00 in 0 W/m2
07:10 9.4 °F 6.3 °F 30.37 in Calm     87% 0.00 in 0 W/m2
07:15 9.4 °F 6.3 °F 30.37 in Calm     87% 0.00 in 0 W/m2
07:20 9.4 °F 6.3 °F 30.37 in Calm     87% 0.00 in 0 W/m2
07:25 9.4 °F 6.3 °F 30.36 in Calm   1 mph 87% 0.00 in 0 W/m2
07:30 9.4 °F 6.3 °F 30.37 in Calm     87% 0.00 in 0 W/m2
07:35 9.3 °F 6.2 °F 30.36 in Calm     87% 0.00 in 0 W/m2
07:40 9.2 °F 5.9 °F 30.36 in SW 1 mph 2 mph 86% 0.00 in 0 W/m2
07:45 9.2 °F 5.9 °F 30.36 in SW 1 mph 2 mph 86% 0.00 in 0 W/m2
07:50 9.1 °F 5.8 °F 30.36 in Calm     86% 0.00 in 5 W/m2
07:55 8.9 °F 5.6 °F 30.36 in Calm     86% 0.00 in 7 W/m2
08:00 8.8 °F 5.5 °F 30.36 in Calm     86% 0.00 in 11 W/m2
08:05 8.7 °F 5.4 °F 30.36 in Calm   1 mph 86% 0.00 in 14 W/m2
08:10 8.6 °F 5.3 °F 30.36 in Calm     86% 0.00 in 12 W/m2
08:15 8.5 °F 5.2 °F 30.36 in Calm   1 mph 86% 0.00 in 16 W/m2
08:20 8.5 °F 5.2 °F 30.36 in SW 1 mph 2 mph 86% 0.00 in 18 W/m2
08:25 8.4 °F 5.1 °F 30.36 in SW 1 mph 2 mph 86% 0.00 in 25 W/m2
08:30 8.5 °F 5.2 °F 30.37 in SW 1 mph 1 mph 86% 0.00 in 30 W/m2
08:35 8.6 °F 5.3 °F 30.37 in Calm   1 mph 86% 0.00 in 44 W/m2
08:40 8.8 °F 5.5 °F 30.37 in Calm   1 mph 86% 0.00 in 28 W/m2
08:45 8.9 °F 5.6 °F 30.37 in SW 1 mph 1 mph 86% 0.00 in 30 W/m2
08:50 9 °F 5.7 °F 30.37 in Calm     86% 0.00 in 42 W/m2
08:55 9.2 °F 5.9 °F 30.37 in SW 1 mph 1 mph 86% 0.00 in 35 W/m2
09:00 9.2 °F 5.9 °F 30.37 in SW 1 mph 1 mph 86% 0.00 in 42 W/m2
09:05 9.3 °F 6 °F 30.38 in Calm   1 mph 86% 0.00 in 67 W/m2
09:10 9.6 °F 6.3 °F 30.38 in Calm   1 mph 86% 0.00 in 39 W/m2
09:15 9.6 °F 6.3 °F 30.38 in Calm   1 mph 86% 0.00 in 83 W/m2
09:20 9.9 °F 6.6 °F 30.39 in Calm     86% 0.00 in 98 W/m2
09:25 10.1 °F 6.5 °F 30.39 in Calm     85% 0.00 in 151 W/m2
09:30 10.1 °F 6.5 °F 30.39 in Calm     85% 0.00 in 141 W/m2
09:35 10.4 °F 6.8 °F 30.39 in Calm     85% 0.00 in 178 W/m2
09:40 10.8 °F 7.2 °F 30.39 in Calm     85% 0.00 in 181 W/m2
09:45 11.2 °F 7.6 °F 30.39 in Calm     85% 0.00 in 169 W/m2
09:50 11.5 °F 7.9 °F 30.39 in Calm     85% 0.00 in 118 W/m2
09:55 11.9 °F 8.3 °F 30.39 in Calm     85% 0.00 in 156 W/m2
10:00 12.3 °F 8.4 °F 30.39 in Calm     84% 0.00 in 185 W/m2
10:05 12.5 °F 8.6 °F 30.39 in Calm     84% 0.00 in 141 W/m2
10:10 12.8 °F 8.9 °F 30.39 in Calm     84% 0.00 in 105 W/m2
10:15 13 °F 9.1 °F 30.39 in Calm   1 mph 84% 0.00 in 199 W/m2
10:20 13.3 °F 9.4 °F 30.39 in Calm     84% 0.00 in 260 W/m2
10:25 14 °F 9.8 °F 30.39 in Calm     83% 0.00 in 207 W/m2
10:30 14.7 °F 10.7 °F 30.39 in Calm     84% 0.00 in 186 W/m2
10:35 15.2 °F 11 °F 30.39 in Calm     83% 0.00 in 190 W/m2
10:40 15.7 °F 11.5 °F 30.39 in Calm     83% 0.00 in 172 W/m2
10:45 15.9 °F 11.4 °F 30.39 in Calm     82% 0.00 in 209 W/m2
10:50 16.1 °F 11.6 °F 30.39 in Calm     82% 0.00 in 171 W/m2
10:55 16.1 °F 11.6 °F 30.39 in Calm     82% 0.00 in 156 W/m2
11:00 16.4 °F 11.9 °F 30.39 in Calm     82% 0.00 in 178 W/m2
11:05 17 °F 12.5 °F 30.39 in Calm   1 mph 82% 0.00 in 244 W/m2
11:10 17.2 °F 12.4 °F 30.39 in Calm     81% 0.00 in 236 W/m2
11:15 17.6 °F 12.8 °F 30.39 in Calm     81% 0.00 in 232 W/m2
11:20 18.1 °F 13.3 °F 30.39 in Calm     81% 0.00 in 236 W/m2
11:25 18.1 °F 13.3 °F 30.38 in Calm     81% 0.00 in 276 W/m2
11:30 18.3 °F 13.4 °F 30.39 in Calm     81% 0.00 in 339 W/m2
11:35 18.6 °F 13.7 °F 30.38 in Calm     81% 0.00 in 387 W/m2
11:40 18.8 °F 13.7 °F 30.38 in Calm     80% 0.00 in 364 W/m2
11:45 18.9 °F 13.5 °F 30.38 in Calm   1 mph 79% 0.00 in 380 W/m2
11:50 19.2 °F 13.8 °F 30.37 in SE 1 mph 2 mph 79% 0.00 in 341 W/m2
11:55 19.5 °F 13.8 °F 30.37 in SE 2 mph 2 mph 78% 0.00 in 352 W/m2
12:00 20.4 °F 14.6 °F 30.36 in SE 2 mph 2 mph 78% 0.00 in 357 W/m2
12:05 20.2 °F 13.5 °F 30.36 in SE 2 mph 2 mph 75% 0.00 in 438 W/m2
12:10 20.3 °F 14.2 °F 30.36 in SE 1 mph 1 mph 77% 0.00 in 464 W/m2
12:15 20.7 °F 14.9 °F 30.36 in Calm   1 mph 78% 0.00 in 478 W/m2
12:20 20.7 °F 14.9 °F 30.36 in Calm     78% 0.00 in 352 W/m2
12:25 20.7 °F 14.6 °F 30.36 in Calm     77% 0.00 in 494 W/m2
12:30 21.2 °F 15.1 °F 30.36 in SE 1 mph 2 mph 77% 0.00 in 283 W/m2
12:35 21.3 °F 14.9 °F 30.35 in SE 1 mph 2 mph 76% 0.00 in 476 W/m2
12:40 23.3 °F 16.5 °F 30.35 in SSE 2 mph 3 mph 75% 0.00 in 536 W/m2
12:45 23.8 °F 17 °F 30.35 in SE 2 mph 3 mph 75% 0.00 in 439 W/m2
12:50 24.2 °F 16.8 °F 30.34 in SE 2 mph 2 mph 73% 0.00 in 508 W/m2
12:55 24.8 °F 16.7 °F 30.34 in SE 2 mph 2 mph 71% 0.00 in 519 W/m2
13:00 24.6 °F 17.2 °F 30.34 in SE 2 mph 2 mph 73% 0.00 in 520 W/m2
13:05 24.5 °F 16.8 °F 30.34 in SE 2 mph 3 mph 72% 0.00 in 443 W/m2
13:10 24.6 °F 17.2 °F 30.34 in ESE 2 mph 2 mph 73% 0.00 in 341 W/m2
13:15 24.7 °F 17.3 °F 30.34 in ESE 2 mph 2 mph 73% 0.00 in 439 W/m2
13:20 24.8 °F 17.1 °F 30.33 in ESE 3 mph 4 mph 72% 0.00 in 473 W/m2
13:25 25 °F 16.9 °F 30.34 in ESE 3 mph 4 mph 71% 0.00 in 473 W/m2
13:30 25.5 °F 17.4 °F 30.33 in East 3 mph 3 mph 71% 0.00 in 464 W/m2
13:35 25 °F 16.6 °F 30.33 in SE 3 mph 3 mph 70% 0.00 in 396 W/m2
13:40 24.8 °F 17.7 °F 30.33 in SE 3 mph 3 mph 74% 0.00 in 325 W/m2
13:45 24.8 °F 17.7 °F 30.33 in SE 3 mph 3 mph 74% 0.00 in 376 W/m2
13:50 24.9 °F 17.8 °F 30.33 in SE 3 mph 3 mph 74% 0.00 in 334 W/m2
13:55 24.9 °F 17.8 °F 30.33 in ESE 3 mph 3 mph 74% 0.00 in 257 W/m2
14:00 24.7 °F 17.6 °F 30.33 in SE 3 mph 3 mph 74% 0.00 in 338 W/m2
14:05 24.9 °F 17.5 °F 30.33 in SSE 3 mph 3 mph 73% 0.00 in 287 W/m2
14:10 25.1 °F 17.3 °F 30.33 in East 2 mph 2 mph 72% 0.00 in 302 W/m2
14:15 25.1 °F 17.3 °F 30.33 in ESE 2 mph 2 mph 72% 0.00 in 190 W/m2
14:20 24.8 °F 16.7 °F 30.32 in SSE 2 mph 3 mph 71% 0.00 in 171 W/m2
14:25 24.7 °F 16.3 °F 30.32 in SE 2 mph 3 mph 70% 0.00 in 186 W/m2
14:30 25.1 °F 16.7 °F 30.32 in SE 2 mph 2 mph 70% 0.00 in 230 W/m2
14:35 25.5 °F 16.7 °F 30.31 in ESE 2 mph 3 mph 69% 0.00 in 311 W/m2
14:40 25.8 °F 17 °F 30.31 in ESE 2 mph 2 mph 69% 0.00 in 378 W/m2
14:45 26.1 °F 17 °F 30.31 in East 2 mph 4 mph 68% 0.00 in 369 W/m2
14:50 26.5 °F 17.4 °F 30.31 in ESE 3 mph 4 mph 68% 0.00 in 394 W/m2
14:55 26.6 °F 17.8 °F 30.31 in SE 3 mph 4 mph 69% 0.00 in 355 W/m2
15:00 26.7 °F 17.2 °F 30.31 in ESE 3 mph 3 mph 67% 0.00 in 336 W/m2
15:05 26.3 °F 17.8 °F 30.31 in SE 3 mph 4 mph 70% 0.00 in 227 W/m2
15:10 26.1 °F 16.6 °F 30.31 in ESE 3 mph 4 mph 67% 0.00 in 232 W/m2
15:15 26.2 °F 17.4 °F 30.30 in ESE 3 mph 4 mph 69% 0.00 in 246 W/m2
15:20 26.3 °F 16.8 °F 30.30 in ESE 3 mph 4 mph 67% 0.00 in 162 W/m2
15:25 26 °F 16.9 °F 30.30 in SE 3 mph 4 mph 68% 0.00 in 172 W/m2
15:30 25.5 °F 16.7 °F 30.30 in ESE 3 mph 3 mph 69% 0.00 in 162 W/m2
15:35 25.4 °F 17 °F 30.30 in ESE 3 mph 3 mph 70% 0.00 in 146 W/m2
15:40 25.5 °F 16.7 °F 30.30 in ESE 3 mph 3 mph 69% 0.00 in 128 W/m2
15:45 25.3 °F 16.5 °F 30.30 in SE 3 mph 3 mph 69% 0.00 in 130 W/m2
15:50 25.1 °F 17.3 °F 30.30 in SE 3 mph 3 mph 72% 0.00 in 118 W/m2
15:55 25.2 °F 16.8 °F 30.30 in ESE 2 mph 3 mph 70% 0.00 in 111 W/m2
16:00 25.3 °F 16.9 °F 30.31 in ESE 2 mph 3 mph 70% 0.00 in 109 W/m2
16:05 25.1 °F 16.7 °F 30.31 in ESE 2 mph 3 mph 70% 0.00 in 102 W/m2
16:10 24.9 °F 17.5 °F 30.31 in SE 2 mph 2 mph 73% 0.00 in 95 W/m2
16:15 25.2 °F 17.1 °F 30.30 in ESE 2 mph 2 mph 71% 0.00 in 90 W/m2
16:20 25 °F 17.2 °F 30.30 in ESE 2 mph 3 mph 72% 0.00 in 81 W/m2
16:25 25 °F 17.2 °F 30.30 in ESE 2 mph 3 mph 72% 0.00 in 76 W/m2
16:30 25 °F 16.9 °F 30.30 in ESE 2 mph 2 mph 71% 0.00 in 69 W/m2
16:35 25 °F 16.9 °F 30.30 in East 2 mph 2 mph 71% 0.00 in 63 W/m2
16:40 25.3 °F 16.9 °F 30.30 in ESE 2 mph 2 mph 70% 0.00 in 56 W/m2
16:45 25 °F 16.9 °F 30.30 in ESE 2 mph 3 mph 71% 0.00 in 49 W/m2
16:50 24.8 °F 17.1 °F 30.30 in ESE 2 mph 2 mph 72% 0.00 in 42 W/m2
16:55 24.7 °F 17 °F 30.30 in SE 2 mph 2 mph 72% 0.00 in 35 W/m2
17:00 24.7 °F 17.3 °F 30.30 in ESE 2 mph 2 mph 73% 0.00 in 28 W/m2
17:05 24.7 °F 17.3 °F 30.30 in ESE 3 mph 3 mph 73% 0.00 in 25 W/m2
17:10 24.6 °F 17.2 °F 30.30 in ESE 3 mph 3 mph 73% 0.00 in 21 W/m2
17:15 24.5 °F 17.1 °F 30.30 in ESE 3 mph 3 mph 73% 0.00 in 18 W/m2
17:20 24.6 °F 17.2 °F 30.30 in ESE 3 mph 3 mph 73% 0.00 in 12 W/m2
17:25 24.7 °F 16.6 °F 30.30 in ESE 3 mph 3 mph 71% 0.00 in 11 W/m2
17:30 24.7 °F 16.6 °F 30.30 in ESE 3 mph 3 mph 71% 0.00 in 7 W/m2
17:35 24.6 °F 16.9 °F 30.30 in ESE 3 mph 3 mph 72% 0.00 in 0 W/m2
17:40 24.6 °F 16.9 °F 30.29 in East 2 mph 4 mph 72% 0.00 in 0 W/m2
17:45 24.8 °F 17.1 °F 30.29 in East 2 mph 4 mph 72% 0.00 in 0 W/m2
17:50 24.8 °F 16.7 °F 30.30 in East 3 mph 3 mph 71% 0.00 in 0 W/m2
17:55 24.8 °F 17.1 °F 30.29 in ENE 3 mph 3 mph 72% 0.00 in 0 W/m2
18:00 24.7 °F 17 °F 30.29 in ESE 3 mph 6 mph 72% 0.00 in 0 W/m2
18:05 24.7 °F 17 °F 30.29 in ESE 3 mph 6 mph 72% 0.00 in 0 W/m2
18:10 24.6 °F 17.2 °F 30.29 in East 4 mph 4 mph 73% 0.00 in 0 W/m2
18:15 24.6 °F 17.2 °F 30.29 in ENE 3 mph 5 mph 73% 0.00 in 0 W/m2
18:20 24.5 °F 16.8 °F 30.28 in East 3 mph 6 mph 72% 0.00 in 0 W/m2
18:25 24.4 °F 17 °F 30.29 in East 3 mph 6 mph 73% 0.00 in 0 W/m2
18:30 24.4 °F 17 °F 30.29 in East 3 mph 3 mph 73% 0.00 in 0 W/m2
18:35 24.3 °F 16.9 °F 30.29 in ESE 3 mph 3 mph 73% 0.00 in 0 W/m2
18:40 24.3 °F 16.9 °F 30.28 in ESE 3 mph 4 mph 73% 0.00 in 0 W/m2
18:45 24.2 °F 17.1 °F 30.28 in ESE 3 mph 4 mph 74% 0.00 in 0 W/m2
18:50 24.2 °F 17.1 °F 30.28 in East 3 mph 3 mph 74% 0.00 in 0 W/m2
18:55 24.2 °F 17.1 °F 30.28 in ESE 2 mph 4 mph 74% 0.00 in 0 W/m2
19:00 24.2 °F 17.1 °F 30.28 in ESE 3 mph 3 mph 74% 0.00 in 0 W/m2
19:05 24.3 °F 17.2 °F 30.27 in ENE 3 mph 8 mph 74% 0.00 in 0 W/m2
19:10 24.2 °F 17.1 °F 30.27 in ESE 4 mph 4 mph 74% 0.00 in 0 W/m2
19:15 24.3 °F 17.2 °F 30.27 in ESE 4 mph 4 mph 74% 0.00 in 0 W/m2
19:20 24.3 °F 17.2 °F 30.27 in ESE 4 mph 4 mph 74% 0.00 in 0 W/m2
19:25 24.3 °F 17.2 °F 30.26 in ESE 3 mph 8 mph 74% 0.00 in 0 W/m2
19:30 24.3 °F 17.2 °F 30.27 in East 3 mph 6 mph 74% 0.00 in 0 W/m2
19:35 24.3 °F 17.2 °F 30.26 in ESE 4 mph 6 mph 74% 0.00 in 0 W/m2
19:40 24.2 °F 17.1 °F 30.27 in ESE 4 mph 4 mph 74% 0.00 in 0 W/m2
19:45 24 °F 17.5 °F 30.26 in ESE 4 mph 4 mph 76% 0.00 in 0 W/m2
19:50 23.8 °F 17.3 °F 30.26 in ESE 4 mph 4 mph 76% 0.00 in 0 W/m2
19:55 23.8 °F 17.6 °F 30.26 in ESE 3 mph 4 mph 77% 0.00 in 0 W/m2
20:00 23.9 °F 17.4 °F 30.26 in ESE 3 mph 3 mph 76% 0.00 in 0 W/m2
20:05 23.9 °F 17.4 °F 30.26 in SE 3 mph 4 mph 76% 0.00 in 0 W/m2
20:10 24 °F 17.8 °F 30.25 in ESE 4 mph 4 mph 77% 0.00 in 0 W/m2
20:15 23.8 °F 17.6 °F 30.25 in ESE 3 mph 4 mph 77% 0.00 in 0 W/m2
20:20 23.9 °F 17.7 °F 30.25 in East 3 mph 4 mph 77% 0.00 in 0 W/m2
20:25 24 °F 17.5 °F 30.24 in East 3 mph 4 mph 76% 0.00 in 0 W/m2
20:30 24 °F 17.5 °F 30.24 in ESE 3 mph 3 mph 76% 0.00 in 0 W/m2
20:35 24 °F 17.5 °F 30.24 in ESE 3 mph 3 mph 76% 0.00 in 0 W/m2
20:40 23.9 °F 17.7 °F 30.24 in ESE 3 mph 6 mph 77% 0.00 in 0 W/m2
20:45 23.9 °F 17.7 °F 30.24 in ESE 3 mph 6 mph 77% 0.00 in 0 W/m2
20:50 23.8 °F 17.6 °F 30.24 in ESE 3 mph 4 mph 77% 0.00 in 0 W/m2
20:55 23.9 °F 17.7 °F 30.24 in SE 3 mph 4 mph 77% 0.00 in 0 W/m2
21:00 24 °F 17.8 °F 30.24 in ESE 3 mph 3 mph 77% 0.00 in 0 W/m2
21:05 24 °F 17.8 °F 30.23 in ESE 2 mph 3 mph 77% 0.00 in 0 W/m2
21:10 24 °F 17.8 °F 30.23 in ESE 3 mph 3 mph 77% 0.00 in 0 W/m2
21:15 24 °F 17.8 °F 30.23 in East 3 mph 3 mph 77% 0.00 in 0 W/m2
21:20 24.1 °F 17.6 °F 30.23 in East 2 mph 2 mph 76% 0.00 in 0 W/m2
21:25 24.2 °F 17.7 °F 30.22 in East 3 mph 4 mph 76% 0.00 in 0 W/m2
21:30 24.2 °F 17.7 °F 30.22 in East 3 mph 3 mph 76% 0.00 in 0 W/m2
21:35 24.2 °F 17.7 °F 30.23 in ESE 3 mph 3 mph 76% 0.00 in 0 W/m2
21:40 24.3 °F 17.8 °F 30.22 in East 2 mph 3 mph 76% 0.00 in 0 W/m2
21:45 24.3 °F 17.8 °F 30.22 in East 2 mph 3 mph 76% 0.00 in 0 W/m2
21:50 24.3 °F 17.8 °F 30.22 in East 2 mph 2 mph 76% 0.00 in 0 W/m2
21:55 24.4 °F 17.9 °F 30.22 in East 2 mph 3 mph 76% 0.00 in 0 W/m2
22:00 24.3 °F 17.8 °F 30.22 in East 2 mph 2 mph 76% 0.00 in 0 W/m2
22:05 24.3 °F 17.8 °F 30.22 in East 2 mph 2 mph 76% 0.00 in 0 W/m2
22:10 24.3 °F 17.8 °F 30.22 in East 1 mph 1 mph 76% 0.00 in 0 W/m2
22:15 24.2 °F 18 °F 30.23 in ENE 1 mph 2 mph 77% 0.00 in 0 W/m2
22:20 24.2 °F 18 °F 30.22 in ENE 1 mph 2 mph 77% 0.00 in 0 W/m2
22:25 24.2 °F 18 °F 30.22 in East 1 mph 3 mph 77% 0.00 in 0 W/m2
22:30 24.3 °F 18.1 °F 30.22 in East 2 mph 2 mph 77% 0.00 in 0 W/m2
22:35 24.4 °F 18.5 °F 30.22 in East 2 mph 2 mph 78% 0.00 in 0 W/m2
22:40 24.4 °F 18.5 °F 30.22 in East 2 mph 2 mph 78% 0.00 in 0 W/m2
22:45 24.3 °F 18.7 °F 30.22 in East 2 mph 2 mph 79% 0.00 in 0 W/m2
22:50 24.2 °F 18.6 °F 30.22 in East 2 mph 2 mph 79% 0.00 in 0 W/m2
22:55 24.2 °F 18.9 °F 30.22 in East 2 mph 2 mph 80% 0.00 in 0 W/m2
23:00 24.2 °F 18.9 °F 30.22 in East 1 mph 2 mph 80% 0.00 in 0 W/m2
23:05 24.4 °F 18.8 °F 30.22 in East 1 mph 3 mph 79% 0.00 in 0 W/m2
23:10 24.5 °F 18.9 °F 30.22 in East 2 mph 2 mph 79% 0.00 in 0 W/m2
23:15 24.6 °F 19 °F 30.22 in East 2 mph 2 mph 79% 0.00 in 0 W/m2
23:20 24.7 °F 18.8 °F 30.22 in East 2 mph 2 mph 78% 0.00 in 0 W/m2
23:25 24.8 °F 18.9 °F 30.22 in East 2 mph 2 mph 78% 0.00 in 0 W/m2
23:30 24.9 °F 19 °F 30.22 in East 2 mph 2 mph 78% 0.00 in 0 W/m2
23:35 25 °F 19.1 °F 30.22 in ENE 2 mph 2 mph 78% 0.00 in 0 W/m2
23:40 24.9 °F 19 °F 30.22 in East 2 mph 2 mph 78% 0.00 in 0 W/m2
23:45 25 °F 19.1 °F 30.23 in East 2 mph 2 mph 78% 0.00 in 0 W/m2
23:50 25 °F 19.4 °F 30.23 in East 2 mph 2 mph 79% 0.00 in 0 W/m2
23:55 24.8 °F 19.5 °F 30.23 in East 1 mph 2 mph 80% 0.00 in 0 W/m2
Sand Point, Michigan, USA
Compliments of Weather Underground - 2 mb